Time;durP1;ratioP1;P1;durP2;ratioP2;P2;SDS_P1;SDS_P2;PMS_P1;PMS_P2;Temp;Humidity;BMP_temperature;BMP_pressure;BME280_temperature;BME280_humidity;BME280_pressure;Samples;Min_cycle;Max_cycle;Signal;HPM_P1;HPM_P2
2022/09/14 00:00:58;;;;;;;4.85;3.17;;;;;;;10.63;75.92;98487.47;6185874;23;20025;-66
2022/09/14 00:03:45;;;;;;;11.68;4.13;;;;;;;10.58;75.76;98473.03;6186135;23;20422;-67
2022/09/14 00:06:15;;;;;;;8.88;3.60;;;;;;;10.62;76.29;98462.81;6186230;23;20035;-67
2022/09/14 00:08:42;;;;;;;4.93;3.72;;;;;;;10.65;75.41;98467.66;6185593;23;20488;-67
2022/09/14 00:11:12;;;;;;;5.43;3.63;;;;;;;10.70;75.84;98484.06;6159650;23;20029;-67
2022/09/14 00:13:41;;;;;;;5.25;3.85;;;;;;;10.65;75.52;98476.00;6186235;23;20101;-67
2022/09/14 00:16:14;;;;;;;9.98;5.05;;;;;;;10.62;75.77;98473.94;6186075;23;20025;-65
2022/09/14 00:18:44;;;;;;;5.90;4.00;;;;;;;10.60;75.72;98462.38;6159368;23;20091;-67
2022/09/14 00:21:11;;;;;;;7.40;3.30;;;;;;;10.61;76.01;98470.34;6159295;23;20025;-67
2022/09/14 00:23:40;;;;;;;8.63;3.75;;;;;;;10.63;76.42;98456.09;6185568;23;20032;-67
2022/09/14 00:26:16;;;;;;;6.72;3.58;;;;;;;10.71;76.26;98446.75;6159486;23;20032;-74
2022/09/14 00:28:46;;;;;;;7.30;3.47;;;;;;;10.71;76.33;98455.09;6185436;23;20087;-74
2022/09/14 00:31:14;;;;;;;5.03;3.50;;;;;;;10.69;76.20;98455.44;6186077;23;20107;-73
2022/09/14 00:33:42;;;;;;;6.28;3.45;;;;;;;10.76;75.88;98450.06;6185942;23;20029;-74
2022/09/14 00:36:19;;;;;;;7.30;3.40;;;;;;;10.75;76.25;98453.22;6185865;23;20021;-73
2022/09/14 00:38:47;;;;;;;7.20;3.30;;;;;;;10.70;75.86;98448.72;6185271;23;20077;-74
2022/09/14 00:41:19;;;;;;;4.15;3.30;;;;;;;10.71;76.05;98446.75;6186085;23;20035;-74
2022/09/14 00:44:01;;;;;;;6.78;3.58;;;;;;;10.75;75.84;98442.88;6185425;23;20424;-74
2022/09/14 00:46:35;;;;;;;6.07;3.05;;;;;;;10.76;76.14;98436.16;6185896;23;20025;-74
2022/09/14 00:49:07;;;;;;;5.70;3.10;;;;;;;10.82;76.35;98440.28;6185619;23;20052;-74
2022/09/14 00:51:36;;;;;;;3.65;2.88;;;;;;;10.84;75.91;98437.13;6185126;23;20025;-74
2022/09/14 00:54:05;;;;;;;4.40;3.25;;;;;;;10.83;76.31;98438.28;6185270;23;20029;-74
2022/09/14 00:56:33;;;;;;;4.63;2.80;;;;;;;10.78;76.21;98435.81;6185643;23;20024;-73
2022/09/14 00:59:05;;;;;;;4.50;2.92;;;;;;;10.77;76.00;98431.38;6185134;23;20070;-74
2022/09/14 01:01:32;;;;;;;4.15;2.83;;;;;;;10.76;76.82;98427.81;6185958;23;20025;-73
2022/09/14 01:04:00;;;;;;;3.92;2.83;;;;;;;10.76;75.83;98413.91;6185352;23;20029;-74
2022/09/14 01:06:45;;;;;;;4.50;3.05;;;;;;;10.80;76.17;98419.53;6185580;23;20032;-73
2022/09/14 01:09:33;;;;;;;3.88;2.58;;;;;;;10.80;76.30;98413.97;6184879;23;20036;-73
2022/09/14 01:12:09;;;;;;;13.82;6.90;;;;;;;10.78;76.57;98433.03;6185845;23;20036;-74
2022/09/14 01:15:16;;;;;;;5.15;3.53;;;;;;;10.77;76.55;98428.59;6185892;23;20052;-74
2022/09/14 01:18:15;;;;;;;4.43;2.92;;;;;;;10.77;76.03;98411.91;6037196;23;20031;-74
2022/09/14 01:21:22;;;;;;;3.65;2.45;;;;;;;10.74;76.51;98407.06;6185259;23;20025;-74
2022/09/14 01:24:16;;;;;;;4.07;2.78;;;;;;;10.80;76.16;98430.66;6185452;23;20025;-74
2022/09/14 01:27:11;;;;;;;4.15;2.70;;;;;;;10.83;75.94;98421.59;6184967;23;20032;-74
2022/09/14 01:29:52;;;;;;;3.72;2.47;;;;;;;10.79;76.06;98407.63;6184915;23;20064;-75
2022/09/14 01:32:21;;;;;;;4.47;2.97;;;;;;;10.80;76.40;98414.78;6159542;23;20032;-74
2022/09/14 01:35:00;;;;;;;4.30;2.83;;;;;;;10.79;76.40;98402.06;6185315;23;20025;-70
2022/09/14 01:37:51;;;;;;;3.95;2.67;;;;;;;10.83;76.72;98408.50;6185558;23;20029;-71
2022/09/14 01:40:28;;;;;;;4.10;3.00;;;;;;;10.81;76.43;98398.91;6185352;23;20075;-70
2022/09/14 01:43:04;;;;;;;5.47;3.10;;;;;;;10.79;76.65;98406.81;6186210;23;20024;-70
2022/09/14 01:45:33;;;;;;;5.20;2.92;;;;;;;10.71;76.86;98388.34;6185254;23;20025;-70
2022/09/14 01:48:04;;;;;;;4.25;2.95;;;;;;;10.80;76.68;98397.28;6184759;23;20029;-70
2022/09/14 01:50:36;;;;;;;;;;;;;;;10.74;76.52;98393.16;6185589;23;20420;-70
2022/09/14 01:53:11;;;;;;;5.95;3.17;;;;;;;10.71;76.85;98399.44;6184994;23;19947;-69
2022/09/14 01:56:18;;;;;;;4.82;3.33;;;;;;;10.71;77.14;98399.44;6185080;23;20025;-71
2022/09/14 01:59:15;;;;;;;5.82;3.60;;;;;;;10.70;76.85;98395.88;6126722;23;20035;-70
2022/09/14 02:01:48;;;;;;;6.45;3.30;;;;;;;10.65;77.30;98396.16;6185313;23;20083;-70
2022/09/14 02:04:26;;;;;;;4.60;2.92;;;;;;;10.62;77.17;98384.94;6184997;23;20021;-70
2022/09/14 02:06:55;;;;;;;7.40;4.10;;;;;;;10.57;77.31;98390.78;6185186;23;20036;-70
2022/09/14 02:09:25;;;;;;;4.88;3.35;;;;;;;10.58;77.86;98370.16;6184609;23;20052;-74
2022/09/14 02:11:54;;;;;;;7.80;4.07;;;;;;;10.60;77.34;98379.72;6184672;23;20068;-74
2022/09/14 02:14:22;;;;;;;5.50;3.33;;;;;;;10.59;77.47;98380.91;6184840;23;20029;-67
2022/09/14 02:16:48;;;;;;;6.03;3.53;;;;;;;10.61;77.33;98386.13;6184708;23;20029;-67
2022/09/14 02:19:16;;;;;;;5.93;3.10;;;;;;;10.59;78.06;98368.97;6184932;23;20025;-67
2022/09/14 02:21:49;;;;;;;6.97;3.72;;;;;;;10.62;77.72;98374.63;6184855;23;20353;-67
2022/09/14 02:24:16;;;;;;;8.18;3.95;;;;;;;10.62;77.76;98379.38;6184936;23;20025;-67
2022/09/14 02:26:48;;;;;;;6.10;3.70;;;;;;;10.62;77.98;98366.28;6184818;23;20318;-67
2022/09/14 02:29:15;;;;;;;6.63;3.58;;;;;;;10.62;78.10;98368.25;6184860;23;20080;-67
2022/09/14 02:31:51;;;;;;;5.78;3.42;;;;;;;10.65;77.94;98365.56;6185133;23;20025;-67
2022/09/14 02:34:40;;;;;;;7.20;3.85;;;;;;;10.66;78.13;98369.16;6185440;23;20025;-68
2022/09/14 02:37:15;;;;;;;4.53;3.22;;;;;;;10.68;77.94;98364.84;6184875;23;20021;-67
2022/09/14 02:40:22;;;;;;;5.85;3.45;;;;;;;10.75;78.00;98362.22;6159168;23;20113;-67
2022/09/14 02:43:18;;;;;;;11.38;4.95;;;;;;;10.75;78.15;98365.00;6184809;23;20131;-68
2022/09/14 02:46:20;;;;;;;7.45;3.75;;;;;;;10.68;77.99;98361.25;6185137;23;20020;-68
2022/09/14 02:49:00;;;;;;;8.50;3.65;;;;;;;10.57;77.95;98352.66;6184661;23;20024;-68
2022/09/14 02:51:40;;;;;;;6.53;4.00;;;;;;;10.61;78.90;98359.13;6184396;23;20021;-67
2022/09/14 02:54:12;;;;;;;;;;;;;;;10.51;78.85;98351.31;6185282;23;20468;-67
2022/09/14 02:56:39;;;;;;;6.70;4.18;;;;;;;10.57;78.62;98351.88;6184713;23;19919;-67
2022/09/14 02:59:06;;;;;;;6.88;4.45;;;;;;;10.62;78.66;98354.34;6185099;23;20113;-68
2022/09/14 03:01:33;;;;;;;11.25;4.57;;;;;;;10.67;78.46;98349.31;6184334;23;20028;-68
2022/09/14 03:04:00;;;;;;;9.27;5.60;;;;;;;10.68;78.43;98355.69;6184395;23;20025;-68
2022/09/14 03:06:27;;;;;;;7.45;4.50;;;;;;;10.67;78.47;98349.31;6185111;23;20083;-68
2022/09/14 03:08:54;;;;;;;10.80;5.38;;;;;;;10.70;78.75;98342.22;6184203;23;20025;-68
2022/09/14 03:11:20;;;;;;;8.05;4.88;;;;;;;10.68;79.19;98339.81;6184740;23;20396;-68
2022/09/14 03:13:47;;;;;;;7.22;5.10;;;;;;;10.65;78.90;98339.72;6184842;23;20025;-66
2022/09/14 03:16:16;;;;;;;7.10;4.32;;;;;;;10.63;78.98;98325.38;6184745;23;20029;-67
2022/09/14 03:18:43;;;;;;;7.97;4.60;;;;;;;10.59;79.47;98327.25;6184472;23;20036;-68
2022/09/14 03:21:12;;;;;;;6.78;4.70;;;;;;;10.61;78.97;98338.84;6184655;23;20515;-68
2022/09/14 03:23:47;;;;;;;8.68;4.78;;;;;;;10.65;79.17;98328.59;6186089;23;20029;-68
2022/09/14 03:26:20;;;;;;;8.02;4.78;;;;;;;10.63;79.31;98342.84;6186937;23;20097;-71
2022/09/14 03:28:51;;;;;;;6.68;4.68;;;;;;;10.62;79.51;98329.31;6186054;23;20029;-70
2022/09/14 03:31:19;;;;;;;7.18;4.63;;;;;;;10.61;79.52;98333.28;6186088;23;20021;-70
2022/09/14 03:33:46;;;;;;;9.20;5.28;;;;;;;10.64;79.57;98327.00;6186629;23;20029;-71
2022/09/14 03:36:17;;;;;;;11.07;4.78;;;;;;;10.68;79.53;98322.31;6186422;23;20377;-71
2022/09/14 03:38:45;;;;;;;10.02;5.30;;;;;;;10.71;79.30;98322.41;6186422;23;20507;-74
2022/09/14 03:41:13;;;;;;;6.72;4.72;;;;;;;10.76;79.46;98319.34;6186614;23;20021;-74
2022/09/14 03:43:41;;;;;;;7.40;5.32;;;;;;;10.82;79.52;98322.63;6186271;23;20025;-73
2022/09/14 03:46:10;;;;;;;8.27;5.07;;;;;;;10.86;79.31;98331.84;6186037;23;20052;-74
2022/09/14 03:48:37;;;;;;;8.20;5.30;;;;;;;10.85;79.43;98325.50;6186092;23;20111;-74
2022/09/14 03:51:06;;;;;;;7.60;4.90;;;;;;;10.86;79.07;98313.19;6186082;23;20484;-74
2022/09/14 03:53:34;;;;;;;8.35;4.35;;;;;;;10.88;78.99;98323.97;6185849;23;20051;-73
2022/09/14 03:56:12;;;;;;;7.05;4.90;;;;;;;10.90;79.45;98322.41;6186201;23;20032;-74
2022/09/14 03:58:39;;;;;;;7.38;5.10;;;;;;;10.89;78.72;98326.38;6186385;23;20076;-68
2022/09/14 04:01:10;;;;;;;6.18;3.97;;;;;;;10.89;79.00;98320.00;6186541;23;20021;-67
2022/09/14 04:03:37;;;;;;;8.90;5.07;;;;;;;10.88;79.19;98322.00;6185962;23;20024;-70
2022/09/14 04:06:05;;;;;;;7.38;4.95;;;;;;;10.93;79.31;98320.91;6185687;23;20077;-66
2022/09/14 04:08:33;;;;;;;8.95;4.85;;;;;;;10.96;79.07;98322.94;6185518;23;20342;-66
2022/09/14 04:11:10;;;;;;;8.45;5.38;;;;;;;10.96;78.90;98312.59;6185495;23;20017;-66
2022/09/14 04:13:37;;;;;;;9.25;5.20;;;;;;;10.95;78.60;98311.00;6186077;23;20075;-66
2022/09/14 04:16:05;;;;;;;8.98;5.15;;;;;;;10.96;79.18;98311.81;6186067;23;20445;-67
2022/09/14 04:18:32;;;;;;;8.60;5.35;;;;;;;10.97;78.73;98313.44;6185957;23;20035;-71
2022/09/14 04:21:01;;;;;;;10.82;5.97;;;;;;;10.98;79.17;98306.69;6185523;23;20021;-72
2022/09/14 04:23:34;;;;;;;8.88;6.97;;;;;;;11.08;78.50;98303.34;6185978;23;20036;-70
2022/09/14 04:26:18;;;;;;;11.70;6.93;;;;;;;11.08;78.70;98314.47;6185851;23;20115;-69
2022/09/14 04:28:45;;;;;;;9.48;5.88;;;;;;;11.08;78.78;98315.25;6185954;23;20377;-68
2022/09/14 04:31:13;;;;;;;10.93;6.18;;;;;;;11.10;78.32;98312.09;6185329;23;20029;-67
2022/09/14 04:33:46;;;;;;;10.55;6.13;;;;;;;11.15;78.91;98314.59;6185304;23;20052;-67
2022/09/14 04:36:16;;;;;;;8.70;5.70;;;;;;;11.22;77.95;98314.75;6185672;23;20025;-67
2022/09/14 04:38:43;;;;;;;12.13;6.05;;;;;;;11.24;78.19;98317.16;6185242;23;20029;-68
2022/09/14 04:41:14;;;;;;;9.25;6.13;;;;;;;11.28;78.31;98316.06;6185652;23;20104;-69
2022/09/14 04:43:43;;;;;;;9.88;6.43;;;;;;;11.30;78.22;98310.94;6185485;23;20079;-69
2022/09/14 04:46:13;;;;;;;12.90;5.43;;;;;;;11.31;77.83;98312.53;6185890;23;20099;-68
2022/09/14 04:48:40;;;;;;;11.77;6.45;;;;;;;11.36;77.74;98315.03;6185528;23;20029;-69
2022/09/14 04:51:15;;;;;;;10.05;6.10;;;;;;;11.41;77.76;98328.66;6185609;23;20048;-68
2022/09/14 04:53:43;;;;;;;11.85;6.00;;;;;;;11.40;77.52;98321.47;6185473;23;20029;-68
2022/09/14 04:56:12;;;;;;;11.73;6.45;;;;;;;11.40;77.21;98321.47;6185348;23;20480;-68
2022/09/14 04:58:42;;;;;;;7.93;5.43;;;;;;;11.59;76.93;98321.47;6185393;23;20079;-71
2022/09/14 05:01:17;;;;;;;10.15;5.85;;;;;;;11.70;76.57;98324.47;6185483;23;20017;-68
2022/09/14 05:03:44;;;;;;;7.72;5.55;;;;;;;11.72;76.59;98314.56;6185395;23;20029;-68
2022/09/14 05:06:23;;;;;;;8.90;5.55;;;;;;;11.66;76.41;98316.06;6185448;23;20032;-68
2022/09/14 05:08:51;;;;;;;9.63;5.85;;;;;;;11.71;76.20;98315.75;6184912;23;20035;-68
2022/09/14 05:11:20;;;;;;;8.63;5.97;;;;;;;11.75;76.40;98313.84;6185578;23;20353;-68
2022/09/14 05:13:48;;;;;;;7.50;5.25;;;;;;;11.84;75.67;98313.59;6159133;23;20055;-69
2022/09/14 05:16:22;;;;;;;8.57;5.35;;;;;;;11.91;75.78;98324.88;6185277;23;20103;-69
2022/09/14 05:18:50;;;;;;;10.18;6.45;;;;;;;11.93;75.66;98328.09;6185140;23;20449;-68
2022/09/14 05:21:19;;;;;;;11.30;7.78;;;;;;;11.91;75.49;98331.25;6185241;23;20029;-68
2022/09/14 05:23:46;;;;;;;11.57;6.68;;;;;;;11.85;75.33;98324.38;6185188;23;20356;-68
2022/09/14 05:26:13;;;;;;;10.65;7.38;;;;;;;11.82;75.69;98327.09;6185292;23;20411;-67
2022/09/14 05:28:40;;;;;;;9.00;6.25;;;;;;;11.77;75.56;98322.63;6185470;23;20079;-68
2022/09/14 05:31:10;;;;;;;12.07;7.45;;;;;;;11.72;75.48;98325.72;6185145;23;20037;-68
2022/09/14 05:33:37;;;;;;;13.10;8.33;;;;;;;11.65;75.85;98319.22;6184767;23;20025;-68
2022/09/14 05:36:07;;;;;;;10.05;6.35;;;;;;;11.59;75.69;98327.03;6184897;23;20031;-68
2022/09/14 05:38:36;;;;;;;13.05;7.20;;;;;;;11.59;76.09;98313.09;6185101;23;20025;-68
2022/09/14 05:41:04;;;;;;;12.00;7.68;;;;;;;11.66;76.14;98318.06;6186106;23;20480;-68
2022/09/14 05:43:32;;;;;;;14.05;6.78;;;;;;;11.76;75.31;98326.59;6184657;23;20547;-68
2022/09/14 05:46:07;;;;;;;19.13;8.48;;;;;;;11.77;75.40;98327.38;6158112;23;20445;-68
2022/09/14 05:48:36;;;;;;;16.10;8.48;;;;;;;11.71;75.60;98320.50;6184727;23;20025;-68
2022/09/14 05:51:15;;;;;;;12.98;8.07;;;;;;;11.63;76.00;98325.16;6158854;23;20017;-68
2022/09/14 05:53:47;;;;;;;17.30;8.27;;;;;;;11.65;75.84;98339.53;6184134;23;20079;-68
2022/09/14 05:56:15;;;;;;;13.98;8.27;;;;;;;11.66;76.14;98329.97;6184977;23;20083;-67
2022/09/14 05:58:42;;;;;;;15.05;8.80;;;;;;;11.59;76.04;98309.50;6184029;23;20025;-68
2022/09/14 06:01:12;;;;;;;17.58;9.30;;;;;;;11.64;75.95;98312.84;6184446;23;20020;-68
2022/09/14 06:03:40;;;;;;;14.35;8.27;;;;;;;11.67;75.61;98328.81;6184453;23;20409;-67
2022/09/14 06:06:08;;;;;;;13.27;8.20;;;;;;;11.65;76.22;98333.94;6184815;23;20048;-68
2022/09/14 06:08:35;;;;;;;12.68;7.80;;;;;;;11.63;75.97;98314.00;6184077;23;20448;-68
2022/09/14 06:11:07;;;;;;;14.05;8.07;;;;;;;11.63;75.96;98314.00;6184546;23;20064;-68
2022/09/14 06:13:35;;;;;;;12.38;7.72;;;;;;;11.64;76.33;98310.06;6184610;23;20021;-67
2022/09/14 06:16:15;;;;;;;11.70;7.85;;;;;;;11.70;75.92;98308.59;6184297;23;20346;-67
2022/09/14 06:18:44;;;;;;;12.25;8.18;;;;;;;11.75;75.95;98315.84;6184180;23;20056;-67
2022/09/14 06:21:14;;;;;;;12.50;8.55;;;;;;;11.75;75.90;98316.63;6184662;23;20021;-66
2022/09/14 06:23:44;;;;;;;11.95;7.93;;;;;;;11.76;76.21;98311.84;6184283;23;20362;-66
2022/09/14 06:26:11;;;;;;;12.48;7.65;;;;;;;11.74;76.31;98317.00;6184946;23;20025;-67
2022/09/14 06:28:39;;;;;;;14.80;8.68;;;;;;;11.69;76.26;98323.66;6183846;23;20025;-67
2022/09/14 06:31:08;;;;;;;16.58;8.57;;;;;;;11.65;76.42;98311.66;6183833;23;20025;-69
2022/09/14 06:33:36;;;;;;;13.32;8.57;;;;;;;11.63;76.29;98314.00;6184136;23;20084;-67
2022/09/14 06:36:14;;;;;;;13.85;8.43;;;;;;;11.73;75.79;98315.38;6185117;23;20025;-68
2022/09/14 06:38:41;;;;;;;11.20;7.85;;;;;;;11.71;75.92;98310.19;6185012;23;20079;-69
2022/09/14 06:41:12;;;;;;;10.27;7.22;;;;;;;11.79;75.64;98306.38;6184301;23;20507;-69
2022/09/14 06:43:41;;;;;;;12.25;6.93;;;;;;;11.90;75.43;98300.97;6184280;23;20029;-68
2022/09/14 06:46:20;;;;;;;12.85;6.60;;;;;;;11.96;75.20;98305.84;6184617;23;20021;-68
2022/09/14 06:48:50;;;;;;;8.93;5.50;;;;;;;12.02;75.27;98304.38;6184305;23;20032;-69
2022/09/14 06:51:23;;;;;;;9.60;5.93;;;;;;;12.08;75.08;98304.88;6184642;23;20017;-69
2022/09/14 06:53:52;;;;;;;9.27;6.28;;;;;;;12.10;75.07;98300.53;6184671;23;20056;-68
2022/09/14 06:56:19;;;;;;;11.47;6.40;;;;;;;12.19;74.76;98301.06;6185626;23;20032;-70
2022/09/14 06:58:49;;;;;;;8.23;5.80;;;;;;;12.24;74.43;98302.75;6186398;23;20410;-69
2022/09/14 07:01:18;;;;;;;7.43;5.20;;;;;;;12.23;74.53;98299.16;6186557;23;20036;-69
2022/09/14 07:03:46;;;;;;;10.40;5.87;;;;;;;12.21;74.18;98290.38;6159455;23;20027;-67
2022/09/14 07:06:16;;;;;;;8.80;5.97;;;;;;;12.22;74.44;98305.91;6185753;23;20100;-68
2022/09/14 07:08:44;;;;;;;8.95;5.82;;;;;;;12.20;74.40;98287.97;6159575;23;20032;-68
2022/09/14 07:11:12;;;;;;;8.30;5.80;;;;;;;12.19;74.47;98303.06;6185960;23;20025;-68
2022/09/14 07:13:40;;;;;;;10.30;6.60;;;;;;;12.16;74.32;98295.44;6185279;23;20140;-70
2022/09/14 07:16:07;;;;;;;9.88;6.47;;;;;;;12.09;74.36;98292.53;6185566;23;20071;-68
2022/09/14 07:18:35;;;;;;;10.02;6.70;;;;;;;12.16;74.24;98298.22;6186094;23;20048;-68
2022/09/14 07:21:07;;;;;;;11.98;7.35;;;;;;;12.17;74.34;98292.28;6185536;23;20067;-68
2022/09/14 07:23:36;;;;;;;8.38;6.10;;;;;;;12.15;74.17;98297.44;6185359;23;20049;-69
2022/09/14 07:26:10;;;;;;;10.65;6.63;;;;;;;12.18;74.12;98291.13;6187092;23;20441;-67
2022/09/14 07:28:38;;;;;;;11.52;6.35;;;;;;;12.21;74.04;98293.16;6185038;23;20025;-67
2022/09/14 07:31:22;;;;;;;9.73;6.07;;;;;;;12.15;73.99;98285.47;6185757;23;20144;-69
2022/09/14 07:33:53;;;;;;;9.75;6.38;;;;;;;12.10;74.33;98283.81;6185206;23;20028;-68
2022/09/14 07:36:21;;;;;;;9.60;5.90;;;;;;;12.13;74.25;98297.00;6186304;23;20046;-68
2022/09/14 07:38:48;;;;;;;14.15;6.22;;;;;;;12.11;74.26;98285.41;6186147;23;20025;-68
2022/09/14 07:41:25;;;;;;;10.35;5.10;;;;;;;12.09;74.35;98285.00;6185835;23;20045;-68
2022/09/14 07:43:56;;;;;;;10.30;6.70;;;;;;;12.06;74.63;98296.88;6185650;23;20393;-69
2022/09/14 07:46:23;;;;;;;9.95;6.90;;;;;;;12.03;74.83;98291.25;6159513;23;20025;-68
2022/09/14 07:48:55;;;;;;;11.13;7.32;;;;;;;12.05;74.76;98284.09;6185417;23;20360;-69
2022/09/14 07:51:23;;;;;;;12.15;6.88;;;;;;;12.11;74.90;98284.63;6185069;23;20021;-69
2022/09/14 07:53:50;;;;;;;9.77;5.97;;;;;;;12.18;74.54;98288.31;6184562;23;20031;-68
2022/09/14 07:56:17;;;;;;;11.35;6.78;;;;;;;12.21;74.46;98289.56;6185175;23;20576;-70
2022/09/14 07:58:44;;;;;;;9.57;6.35;;;;;;;12.23;74.78;98278.84;6159335;23;20063;-72
2022/09/14 08:01:14;;;;;;;11.40;7.45;;;;;;;12.21;74.89;98279.22;6185312;23;20453;-72
2022/09/14 08:03:46;;;;;;;12.63;6.32;;;;;;;12.19;74.97;98277.97;6185411;23;20048;-71
2022/09/14 08:06:15;;;;;;;16.40;7.53;;;;;;;12.21;74.83;98273.63;6185898;23;20025;-70
2022/09/14 08:08:47;;;;;;;10.98;6.90;;;;;;;12.18;75.21;98274.38;6184436;23;20036;-71
2022/09/14 08:11:19;;;;;;;9.65;6.20;;;;;;;12.20;75.17;98277.59;6185346;23;20468;-68
2022/09/14 08:13:54;;;;;;;10.63;6.00;;;;;;;12.22;75.57;98269.66;6185361;23;20397;-68
2022/09/14 08:16:22;;;;;;;8.75;5.30;;;;;;;12.31;75.36;98277.75;6184908;23;20036;-68
2022/09/14 08:19:01;;;;;;;9.70;5.65;;;;;;;12.43;75.05;98269.19;6184841;23;20021;-67
2022/09/14 08:21:29;;;;;;;8.57;5.50;;;;;;;12.63;74.45;98271.50;6185898;23;20017;-68
2022/09/14 08:23:57;;;;;;;9.90;5.50;;;;;;;12.83;74.07;98266.59;6184744;23;20075;-68
2022/09/14 08:26:26;;;;;;;8.52;5.55;;;;;;;12.86;74.16;98263.03;6185037;23;20334;-68
2022/09/14 08:28:54;;;;;;;7.57;5.07;;;;;;;12.75;74.56;98265.69;6184811;23;20024;-69
2022/09/14 08:31:25;;;;;;;14.15;5.93;;;;;;;12.74;74.62;98260.47;6184332;23;20017;-68
2022/09/14 08:34:00;;;;;;;10.45;5.85;;;;;;;12.77;74.54;98268.09;6184299;23;20052;-67
2022/09/14 08:36:31;;;;;;;10.10;5.78;;;;;;;12.81;74.66;98266.97;6185220;23;20079;-68
2022/09/14 08:38:58;;;;;;;10.13;6.10;;;;;;;12.72;74.62;98249.69;6184942;23;20052;-67
2022/09/14 08:41:29;;;;;;;11.27;6.55;;;;;;;12.70;74.84;98251.25;6185700;23;20075;-67
2022/09/14 08:44:17;;;;;;;9.82;6.30;;;;;;;12.71;74.67;98258.44;6184578;23;20029;-68
2022/09/14 08:46:50;;;;;;;10.07;5.93;;;;;;;12.73;74.69;98256.88;6184976;23;20060;-68
2022/09/14 08:49:23;;;;;;;9.82;6.20;;;;;;;12.78;74.46;98258.53;6185533;23;20024;-68
2022/09/14 08:51:50;;;;;;;12.98;6.60;;;;;;;12.76;74.39;98256.13;6185718;23;20093;-67
2022/09/14 08:54:17;;;;;;;11.15;6.00;;;;;;;12.75;74.43;98260.09;6185016;23;20071;-69
2022/09/14 08:57:02;;;;;;;10.02;5.75;;;;;;;12.67;74.49;98252.81;6184762;23;20021;-69
2022/09/14 08:59:45;;;;;;;9.73;5.95;;;;;;;12.68;74.40;98259.97;6185467;23;20025;-68
2022/09/14 09:02:43;;;;;;;10.25;6.07;;;;;;;12.64;74.52;98258.31;6184857;23;20028;-69
2022/09/14 09:05:15;;;;;;;11.15;6.35;;;;;;;12.63;74.40;98249.16;6184920;23;20076;-68
2022/09/14 09:08:16;;;;;;;11.90;6.20;;;;;;;12.61;74.57;98254.31;6158537;23;20029;-70
2022/09/14 09:10:44;;;;;;;11.68;6.32;;;;;;;12.58;74.53;98255.06;6154373;23;20033;-68
2022/09/14 09:13:17;;;;;;;10.52;6.70;;;;;;;12.62;74.34;98252.34;6184907;23;20029;-70
2022/09/14 09:15:54;;;;;;;10.25;6.55;;;;;;;12.67;74.18;98252.81;6185508;23;20025;-68
2022/09/14 09:18:39;;;;;;;9.60;6.57;;;;;;;12.71;74.24;98255.66;6185295;23;20076;-69
2022/09/14 09:21:20;;;;;;;11.30;5.95;;;;;;;12.75;74.16;98253.72;6185069;23;20457;-67
2022/09/14 09:23:47;;;;;;;14.43;6.28;;;;;;;12.69;74.35;98250.44;6184639;23;20020;-69
2022/09/14 09:26:29;;;;;;;11.52;5.53;;;;;;;12.70;74.20;98263.22;6184474;23;20056;-69
2022/09/14 09:28:59;;;;;;;8.10;5.30;;;;;;;12.65;74.37;98260.75;6184988;23;20052;-68
2022/09/14 09:31:32;;;;;;;8.00;4.65;;;;;;;12.59;74.32;98253.88;6185014;23;20112;-69
2022/09/14 09:34:00;;;;;;;10.63;5.55;;;;;;;12.61;74.55;98256.28;6185223;23;20029;-68
2022/09/14 09:36:35;;;;;;;9.68;4.70;;;;;;;12.63;74.41;98251.16;6184591;23;20029;-69
2022/09/14 09:39:03;;;;;;;9.35;5.60;;;;;;;12.67;74.25;98255.59;6184672;23;20032;-69
2022/09/14 09:41:42;;;;;;;9.43;5.43;;;;;;;12.83;74.11;98261.81;6184696;23;20032;-69
2022/09/14 09:44:10;;;;;;;6.80;4.97;;;;;;;12.88;73.69;98250.31;6184416;23;20035;-68
2022/09/14 09:46:59;;;;;;;13.23;4.78;;;;;;;12.93;73.72;98251.16;6184507;23;20128;-68
2022/09/14 09:49:38;;;;;;;8.03;4.40;;;;;;;13.03;73.71;98256.09;6184948;23;20115;-69
2022/09/14 09:52:11;;;;;;;11.85;6.43;;;;;;;13.19;73.38;98253.91;6184385;23;20543;-69
2022/09/14 09:54:47;;;;;;;7.93;4.97;;;;;;;13.22;73.10;98255.94;6184820;23;20028;-68
2022/09/14 09:57:40;;;;;;;5.57;4.18;;;;;;;13.07;73.61;98260.56;6185081;23;20457;-68
2022/09/14 10:00:16;;;;;;;12.68;4.35;;;;;;;13.04;73.70;98249.31;6178523;23;20025;-68
2022/09/14 10:02:43;;;;;;;5.68;4.13;;;;;;;13.12;73.57;98257.44;6184767;23;20484;-68
2022/09/14 10:05:10;;;;;;;6.82;4.80;;;;;;;13.17;73.15;98253.50;6184930;23;20095;-69
2022/09/14 10:07:59;;;;;;;10.90;4.38;;;;;;;13.17;73.09;98261.88;6184309;23;20032;-69
2022/09/14 10:10:38;;;;;;;7.28;4.28;;;;;;;13.24;72.82;98256.34;6184901;23;20457;-69
2022/09/14 10:13:24;;;;;;;7.70;4.05;;;;;;;13.39;72.68;98255.34;6184649;23;20021;-68
2022/09/14 10:15:51;;;;;;;7.72;3.47;;;;;;;13.59;71.99;98251.94;6184407;23;20094;-69
2022/09/14 10:18:19;;;;;;;4.93;3.40;;;;;;;13.70;71.52;98249.25;6185409;23;20059;-71
2022/09/14 10:20:52;;;;;;;6.10;3.05;;;;;;;13.74;71.25;98245.31;6184772;23;20120;-68
2022/09/14 10:23:19;;;;;;;5.18;3.10;;;;;;;13.77;71.41;98241.75;6184371;23;20028;-69
2022/09/14 10:25:48;;;;;;;7.03;2.97;;;;;;;13.84;70.64;98249.41;6185011;23;20056;-68
2022/09/14 10:28:26;;;;;;;5.17;2.87;;;;;;;13.91;70.43;98243.88;6184436;23;20029;-69
2022/09/14 10:31:00;;;;;;;6.50;3.33;;;;;;;13.92;70.20;98254.66;6185402;23;20021;-69
2022/09/14 10:33:28;;;;;;;21.20;8.27;;;;;;;13.82;70.57;98246.19;6184204;23;20020;-69
2022/09/14 10:36:04;;;;;;;7.53;3.83;;;;;;;13.76;70.24;98239.34;6184899;23;20105;-68
2022/09/14 10:38:40;;;;;;;5.25;3.38;;;;;;;13.65;70.67;98247.63;6184584;23;20445;-68
2022/09/14 10:41:40;;;;;;;9.50;3.67;;;;;;;13.55;70.78;98239.13;6184733;23;20491;-69
2022/09/14 10:44:18;;;;;;;5.32;3.38;;;;;;;13.48;70.63;98242.69;6184803;23;20094;-68
2022/09/14 10:46:51;;;;;;;5.82;3.53;;;;;;;13.47;70.61;98240.28;6184691;23;20352;-68
2022/09/14 10:49:21;;;;;;;5.47;2.88;;;;;;;13.48;70.92;98247.44;6184721;23;20025;-70
2022/09/14 10:51:53;;;;;;;7.20;4.22;;;;;;;13.42;71.07;98243.41;6184523;23;20028;-69
2022/09/14 10:55:03;;;;;;;8.35;3.85;;;;;;;13.35;71.09;98251.72;6184786;23;20336;-70
2022/09/14 10:57:49;;;;;;;8.30;3.88;;;;;;;13.26;71.04;98259.59;6184636;23;20029;-69
2022/09/14 11:00:19;;;;;;;8.15;3.50;;;;;;;13.28;70.94;98260.00;6184754;23;20028;-70
2022/09/14 11:03:30;;;;;;;9.43;4.90;;;;;;;13.38;70.88;98264.91;6184396;23;20112;-69
2022/09/14 11:06:25;;;;;;;8.40;4.10;;;;;;;13.51;70.29;98252.28;6092434;23;20031;-69
2022/09/14 11:09:01;;;;;;;6.90;4.35;;;;;;;13.55;70.29;98258.69;6184161;23;20031;-69
2022/09/14 11:11:30;;;;;;;8.05;4.38;;;;;;;13.48;70.54;98248.25;6158821;23;20029;-69
2022/09/14 11:14:16;;;;;;;6.88;3.97;;;;;;;13.52;70.68;98251.06;6184852;23;20063;-69
2022/09/14 11:16:57;;;;;;;6.20;3.88;;;;;;;13.62;70.32;98253.19;6184635;23;20021;-68
2022/09/14 11:20:14;;;;;;;8.32;3.75;;;;;;;13.76;69.71;98247.72;6183768;23;20539;-70
2022/09/14 11:23:06;;;;;;;6.53;3.78;;;;;;;13.92;69.32;98245.50;6131900;23;20052;-70
2022/09/14 11:25:55;;;;;;;6.18;4.18;;;;;;;13.92;69.28;98245.50;6183822;23;20103;-72
2022/09/14 11:28:32;;;;;;;7.55;3.88;;;;;;;13.92;69.08;98251.88;6185232;23;20659;-67
2022/09/14 11:31:25;;;;;;;10.75;4.20;;;;;;;13.85;68.99;98242.63;6157357;23;20051;-67
2022/09/14 11:34:14;;;;;;;29.55;14.35;;;;;;;13.78;69.46;98250.94;6168081;23;20032;-71
2022/09/14 11:36:49;;;;;;;12.50;5.20;;;;;;;13.72;69.25;98241.31;6183760;23;20033;-71
2022/09/14 11:39:21;;;;;;;8.50;4.18;;;;;;;13.64;69.53;98248.00;6185607;23;20024;-68
2022/09/14 11:41:58;;;;;;;7.47;3.97;;;;;;;13.60;69.67;98245.19;6183990;23;20353;-69
2022/09/14 11:44:36;;;;;;;6.10;3.38;;;;;;;13.65;69.39;98246.84;6184043;23;20029;-71
2022/09/14 11:47:12;;;;;;;10.68;3.95;;;;;;;13.70;69.65;98243.69;6185889;23;20025;-70
2022/09/14 11:50:00;;;;;;;9.23;3.75;;;;;;;13.73;69.67;98232.53;6186916;23;20025;-70
2022/09/14 11:52:31;;;;;;;10.98;4.40;;;;;;;13.78;69.52;98239.78;6184550;23;20025;-67
2022/09/14 11:55:00;;;;;;;6.68;3.97;;;;;;;13.83;68.97;98242.22;6185796;23;20025;-68
2022/09/14 11:57:32;;;;;;;9.15;4.63;;;;;;;13.93;68.47;98244.28;6183793;23;20032;-69
2022/09/14 12:00:05;;;;;;;6.00;3.47;;;;;;;13.91;68.53;98236.31;6185238;23;20021;-69
2022/09/14 12:02:35;;;;;;;8.55;3.75;;;;;;;13.85;68.21;98240.63;6184915;23;20083;-67